Time;durP1;ratioP1;P1;durP2;ratioP2;P2;SDS_P1;SDS_P2;PMS_P1;PMS_P2;Temp;Humidity;BMP_temperature;BMP_pressure;BME280_temperature;BME280_humidity;BME280_pressure;Samples;Min_cycle;Max_cycle;Signal;HPM_P1;HPM_P2
2020/12/31 00:00:13;;;;;;;;;59.50;44.50;;;;;13.00;56.24;97578.59;4817761;28;103117;-77
2020/12/31 00:02:40;;;;;;;;;58.00;41.75;;;;;13.00;56.44;97570.47;4827846;28;104296;-77
2020/12/31 00:05:07;;;;;;;;;60.50;45.00;;;;;12.97;56.57;97570.94;4836480;28;103073;-77
2020/12/31 00:07:34;;;;;;;;;54.00;43.75;;;;;12.97;56.56;97574.47;4818443;28;102923;-77
2020/12/31 00:10:02;;;;;;;;;48.75;39.25;;;;;12.96;56.19;97581.00;4810108;28;103307;-77
2020/12/31 00:12:29;;;;;;;;;57.00;41.00;;;;;12.90;56.24;97575.69;4815018;28;105063;-76
2020/12/31 00:14:56;;;;;;;;;57.00;43.00;;;;;12.88;56.05;97572.38;4798044;28;102889;-77
2020/12/31 00:17:23;;;;;;;;;49.50;39.75;;;;;12.93;56.43;97580.63;4781822;28;103373;-77
2020/12/31 00:19:50;;;;;;;;;50.50;41.00;;;;;12.89;56.49;97583.00;4820933;28;103999;-77
2020/12/31 00:22:18;;;;;;;;;52.50;42.25;;;;;12.90;56.29;97586.53;4809177;28;103868;-77
2020/12/31 00:24:45;;;;;;;;;51.25;38.25;;;;;12.88;55.93;97589.47;4818186;28;103235;-77
2020/12/31 00:27:18;;;;;;;;;54.50;42.50;;;;;12.88;55.86;97596.78;4792033;28;103038;-77
2020/12/31 00:29:47;;;;;;;;;53.75;40.50;;;;;12.83;56.15;97586.66;4809347;28;102967;-77
2020/12/31 00:32:14;;;;;;;;;47.00;38.25;;;;;12.84;56.81;97596.47;4812585;28;104307;-77
2020/12/31 00:34:41;;;;;;;;;52.00;40.25;;;;;12.84;56.58;97598.34;4809087;28;103877;-77
2020/12/31 00:37:08;;;;;;;;;47.50;37.00;;;;;12.81;55.68;97591.53;4792395;28;103052;-77
2020/12/31 00:39:35;;;;;;;;;51.00;38.25;;;;;12.82;55.92;97595.06;4811871;28;102891;-77
2020/12/31 00:42:02;;;;;;;;;49.75;37.75;;;;;12.81;56.46;97598.84;4808935;28;105716;-77
2020/12/31 00:44:28;;;;;;;;;50.00;39.75;;;;;12.82;56.70;97595.88;4815181;28;102991;-77
2020/12/31 00:46:55;;;;;;;;;43.25;35.50;;;;;12.77;55.74;97592.25;4805443;28;102964;-77
2020/12/31 00:49:22;;;;;;;;;42.25;36.75;;;;;12.75;56.60;97589.75;4795535;28;103025;-77
2020/12/31 00:51:48;;;;;;;;;41.50;34.75;;;;;12.79;55.74;97598.22;4795777;28;104187;-77
2020/12/31 00:54:15;;;;;;;;;49.75;38.25;;;;;12.79;56.61;97600.94;4805529;28;102844;-77
2020/12/31 00:56:42;;;;;;;;;50.25;39.00;;;;;12.76;56.25;97602.25;4813428;28;105337;-77
2020/12/31 00:59:09;;;;;;;;;46.75;36.25;;;;;12.78;55.77;97605.56;4829282;28;103069;-77
2020/12/31 01:01:36;;;;;;;;;45.25;35.00;;;;;12.73;56.56;97608.16;4803008;28;104302;-77
2020/12/31 01:04:02;;;;;;;;;45.00;35.75;;;;;12.73;56.21;97599.22;4801430;28;102842;-77
2020/12/31 01:06:38;;;;;;;;;48.50;36.50;;;;;12.72;56.71;97602.97;4785455;28;103742;-77
2020/12/31 01:09:09;;;;;;;;;51.50;37.75;;;;;12.69;56.26;97589.91;4792632;28;103026;-81
2020/12/31 01:11:39;;;;;;;;;40.50;35.00;;;;;12.67;56.03;97592.00;4790081;28;110393;-77
2020/12/31 01:14:07;;;;;;;;;48.50;36.75;;;;;12.71;56.90;97609.47;4795166;28;102992;-77
2020/12/31 01:16:38;;;;;;;;;50.25;36.25;;;;;12.70;56.79;97607.84;4807349;28;102981;-73
2020/12/31 01:19:06;;;;;;;;;47.00;34.25;;;;;12.69;56.47;97614.31;4825070;28;103006;-73
2020/12/31 01:21:34;;;;;;;;;36.75;32.00;;;;;12.66;56.93;97612.88;4793873;28;103721;-73
2020/12/31 01:24:01;;;;;;;;;45.25;31.50;;;;;12.62;56.32;97602.75;4816009;28;103740;-73
2020/12/31 01:26:30;;;;;;;;;37.50;33.25;;;;;12.52;56.73;97587.91;4801610;28;102969;-73
2020/12/31 01:28:57;;;;;;;;;37.00;32.50;;;;;12.56;56.87;97598.31;4791728;28;103127;-73
2020/12/31 01:31:25;;;;;;;;;39.25;31.75;;;;;12.54;56.97;97601.25;4788237;28;105291;-74
2020/12/31 01:33:52;;;;;;;;;36.25;31.75;;;;;12.51;56.85;97597.13;4801895;28;102921;-73
2020/12/31 01:36:19;;;;;;;;;46.25;33.25;;;;;12.53;56.69;97602.28;4790829;28;103118;-73
2020/12/31 01:38:46;;;;;;;;;34.75;28.00;;;;;12.52;56.00;97606.06;4814003;28;102890;-73
2020/12/31 01:41:13;;;;;;;;;34.75;29.50;;;;;12.51;56.89;97602.56;4796226;28;104166;-73
2020/12/31 01:43:40;;;;;;;;;32.75;30.75;;;;;12.53;56.83;97603.13;4795860;28;103011;-73
2020/12/31 01:46:10;;;;;;;;;32.75;28.75;;;;;12.52;56.11;97597.94;4796796;28;102890;-77
2020/12/31 01:48:38;;;;;;;;;37.00;32.00;;;;;12.51;56.24;97610.69;4821309;28;103002;-77
2020/12/31 01:51:05;;;;;;;;;38.50;28.75;;;;;12.49;56.99;97601.13;4800535;28;105462;-77
2020/12/31 01:53:32;;;;;;;;;36.25;28.75;;;;;12.44;56.37;97603.72;4801521;28;102998;-77
2020/12/31 01:55:58;;;;;;;;;35.25;30.50;;;;;12.44;56.54;97623.53;4801181;28;102900;-77
2020/12/31 01:58:25;;;;;;;;;32.25;27.25;;;;;12.42;56.83;97617.53;4823261;28;103188;-77
2020/12/31 02:00:52;;;;;;;;;36.00;28.75;;;;;12.44;56.23;97630.84;4800872;28;105672;-76
2020/12/31 02:03:19;;;;;;;;;34.00;29.75;;;;;12.43;57.13;97640.84;4810266;28;102875;-77
2020/12/31 02:05:45;;;;;;;;;34.50;30.00;;;;;12.42;56.55;97639.22;4777894;28;104032;-76
2020/12/31 02:08:12;;;;;;;;;35.25;27.50;;;;;12.44;57.09;97645.22;4798809;28;103000;-76
2020/12/31 02:10:39;;;;;;;;;29.25;27.75;;;;;12.43;56.38;97643.56;4825551;28;104426;-76
2020/12/31 02:13:07;;;;;;;;;31.00;28.00;;;;;12.43;56.46;97646.28;4842908;28;102994;-76
2020/12/31 02:15:34;;;;;;;;;31.50;22.25;;;;;12.38;56.78;97638.00;4825436;28;103359;-76
2020/12/31 02:18:02;;;;;;;;;34.75;30.25;;;;;12.36;56.10;97634.72;4839878;28;103984;-76
2020/12/31 02:20:29;;;;;;;;;32.00;27.25;;;;;12.40;56.54;97652.19;4840699;28;108343;-76
2020/12/31 02:22:57;;;;;;;;;34.00;27.00;;;;;12.38;56.85;97639.94;4822672;28;103295;-76
2020/12/31 02:25:25;;;;;;;;;28.50;23.25;;;;;12.35;56.71;97652.06;4819727;28;102831;-77
2020/12/31 02:27:53;;;;;;;;;30.75;23.75;;;;;12.39;57.07;97650.50;4836092;28;102910;-76
2020/12/31 02:30:20;;;;;;;;;31.00;28.00;;;;;12.38;56.61;97654.28;4835156;28;103993;-77
2020/12/31 02:32:48;;;;;;;;;31.75;26.00;;;;;12.37;56.76;97659.97;4822002;28;102860;-76
2020/12/31 02:35:16;;;;;;;;;29.25;24.25;;;;;12.38;56.90;97670.53;4810405;28;103045;-77
2020/12/31 02:37:44;;;;;;;;;30.75;27.50;;;;;12.36;56.47;97656.41;4832690;28;103226;-77
2020/12/31 02:40:11;;;;;;;;;27.50;24.50;;;;;12.35;56.23;97659.34;4822407;28;104571;-77
2020/12/31 02:42:39;;;;;;;;;26.50;19.00;;;;;12.31;56.52;97656.28;4827633;28;103498;-76
2020/12/31 02:45:07;;;;;;;;;11.75;9.50;;;;;12.30;56.58;97656.53;4809354;28;104511;-76
2020/12/31 02:47:35;;;;;;;;;23.75;22.25;;;;;12.34;56.02;97663.94;4810910;28;103210;-76
2020/12/31 02:50:02;;;;;;;;;25.25;21.75;;;;;12.33;56.47;97654.19;4814841;28;103584;-76
2020/12/31 02:52:28;;;;;;;;;27.50;20.25;;;;;12.33;56.32;97645.22;4840811;28;102966;-76
2020/12/31 02:54:55;;;;;;;;;34.00;28.75;;;;;12.31;56.77;97640.03;4825168;28;102778;-77
2020/12/31 02:57:22;;;;;;;;;28.50;23.50;;;;;12.33;56.30;97645.22;4847232;28;103669;-76
2020/12/31 02:59:49;;;;;;;;;30.25;24.75;;;;;12.31;56.55;97650.88;4825877;28;105223;-76
2020/12/31 03:02:15;;;;;;;;;29.50;25.50;;;;;12.31;56.24;97647.34;4824167;28;103865;-77
2020/12/31 03:04:42;;;;;;;;;24.00;21.75;;;;;12.32;56.60;97644.41;4826939;28;102784;-77
2020/12/31 03:07:09;;;;;;;;;29.75;24.00;;;;;12.31;55.94;97652.75;4824635;28;102837;-76
2020/12/31 03:09:35;;;;;;;;;22.00;19.25;;;;;12.31;56.48;97658.19;4835719;28;104688;-77
2020/12/31 03:12:03;;;;;;;;;27.25;21.25;;;;;12.30;56.74;97660.06;4830853;28;103740;-76
2020/12/31 03:14:30;;;;;;;;;26.75;22.75;;;;;12.29;56.37;97652.97;4815105;28;104089;-77
2020/12/31 03:16:56;;;;;;;;;21.50;20.00;;;;;12.30;55.96;97654.63;4844536;28;103340;-77
2020/12/31 03:19:23;;;;;;;;;23.25;21.25;;;;;12.25;56.86;97654.50;4814731;28;105497;-76
2020/12/31 03:21:50;;;;;;;;;26.50;23.75;;;;;12.28;55.88;97664.06;4840315;28;103404;-77
2020/12/31 03:24:16;;;;;;;;;34.50;23.25;;;;;12.29;56.62;97655.69;4821752;28;102948;-77
2020/12/31 03:26:43;;;;;;;;;24.00;21.50;;;;;12.26;55.78;97658.88;4842414;28;103067;-76
2020/12/31 03:29:10;;;;;;;;;26.75;21.75;;;;;12.25;55.91;97657.22;4841026;28;103936;-76
2020/12/31 03:31:36;;;;;;;;;28.50;19.25;;;;;12.24;56.51;97663.72;4843237;28;102914;-76
2020/12/31 03:34:04;;;;;;;;;26.75;19.50;;;;;12.24;56.54;97658.31;4833213;28;102891;-76
2020/12/31 03:36:30;;;;;;;;;20.50;19.00;;;;;12.19;56.19;97650.06;4829130;28;102917;-76
2020/12/31 03:38:57;;;;;;;;;23.50;18.75;;;;;12.24;56.22;97658.31;4828852;28;108829;-77
2020/12/31 03:41:24;;;;;;;;;25.25;19.00;;;;;12.24;56.08;97671.03;4841712;28;102904;-76
2020/12/31 03:43:50;;;;;;;;;18.75;17.50;;;;;12.24;56.63;97665.59;4826942;28;103037;-77
2020/12/31 03:46:17;;;;;;;;;24.50;20.00;;;;;12.21;56.16;97655.22;4832641;28;102966;-76
2020/12/31 03:48:44;;;;;;;;;22.25;18.25;;;;;12.23;56.56;97653.09;4820245;28;104294;-76
2020/12/31 03:51:10;;;;;;;;;19.00;19.00;;;;;12.21;56.05;97647.09;4827641;28;102822;-76
2020/12/31 03:53:37;;;;;;;;;22.50;17.00;;;;;12.23;56.02;97650.41;4810517;28;103171;-76
2020/12/31 03:56:04;;;;;;;;;19.25;17.00;;;;;12.19;55.92;97639.22;4823330;28;103033;-76
2020/12/31 03:58:31;;;;;;;;;20.25;17.75;;;;;12.20;55.93;97645.47;4848033;28;104185;-76
2020/12/31 04:00:58;;;;;;;;;19.50;18.50;;;;;12.15;56.15;97643.44;4844094;28;102702;-76
2020/12/31 04:03:25;;;;;;;;;25.25;17.00;;;;;12.18;56.73;97648.41;4844887;28;103558;-76
2020/12/31 04:05:51;;;;;;;;;17.00;15.25;;;;;12.20;56.65;97651.72;4826263;28;103025;-76
2020/12/31 04:08:18;;;;;;;;;22.50;18.75;;;;;12.20;55.99;97646.28;4828365;28;103978;-76
2020/12/31 04:10:45;;;;;;;;;20.50;18.75;;;;;12.19;56.46;97649.22;4845424;28;103863;-76
2020/12/31 04:13:12;;;;;;;;;17.75;16.00;;;;;12.18;55.70;97652.97;4816498;28;102897;-76
2020/12/31 04:15:39;;;;;;;;;24.75;19.75;;;;;12.19;56.49;97670.91;4839618;28;102780;-76
2020/12/31 04:18:05;;;;;;;;;14.00;13.50;;;;;12.18;56.52;97678.19;4831925;28;104509;-76
2020/12/31 04:20:33;;;;;;;;;20.25;17.75;;;;;12.16;56.32;97666.75;4825324;28;103316;-76
2020/12/31 04:23:00;;;;;;;;;19.00;17.00;;;;;12.17;55.98;97673.84;4836698;28;104175;-77
2020/12/31 04:25:26;;;;;;;;;23.25;18.50;;;;;12.11;56.07;97669.38;4842748;28;102994;-76
2020/12/31 04:27:53;;;;;;;;;14.00;13.75;;;;;12.13;56.29;97666.41;4833183;28;107052;-76
2020/12/31 04:30:20;;;;;;;;;20.00;16.75;;;;;12.12;56.56;97662.03;4827653;28;103009;-76
2020/12/31 04:32:47;;;;;;;;;17.00;16.00;;;;;12.14;55.86;97665.34;4845697;28;102736;-76
2020/12/31 04:35:13;;;;;;;;;16.50;16.00;;;;;12.13;56.39;97661.81;4814260;28;103040;-76
2020/12/31 04:37:40;;;;;;;;;15.50;14.25;;;;;12.15;56.04;97681.38;4822772;28;104070;-76
2020/12/31 04:40:07;;;;;;;;;15.50;15.50;;;;;12.08;56.40;97669.81;4841937;28;102896;-76
2020/12/31 04:42:35;;;;;;;;;17.50;15.50;;;;;12.11;55.88;97685.63;4846838;28;102869;-76
2020/12/31 04:45:04;;;;;;;;;21.00;18.00;;;;;12.12;55.79;97686.44;4812144;28;105614;-76
2020/12/31 04:47:54;;;;;;;;;17.75;15.00;;;;;12.14;56.27;97684.31;4828224;28;104060;-76
2020/12/31 04:50:21;;;;;;;;;21.75;16.75;;;;;12.13;56.15;97678.06;4761221;28;103470;-77
2020/12/31 04:52:48;;;;;;;;;15.25;14.25;;;;;12.11;56.36;97679.38;4836978;28;102984;-76
2020/12/31 04:55:17;;;;;;;;;15.00;13.50;;;;;12.13;55.82;97679.97;4791524;28;102884;-76
2020/12/31 04:57:44;;;;;;;;;16.25;13.75;;;;;12.10;56.13;97677.72;4840079;28;103230;-77
2020/12/31 05:00:11;;;;;;;;;19.75;14.75;;;;;12.08;56.50;97683.38;4828611;28;102777;-76
2020/12/31 05:02:37;;;;;;;;;15.00;13.75;;;;;12.11;56.47;97701.88;4804935;28;103942;-76
2020/12/31 05:05:04;;;;;;;;;14.25;12.50;;;;;12.11;56.58;97696.47;4826212;28;103031;-76
2020/12/31 05:07:31;;;;;;;;;15.00;13.75;;;;;12.09;55.77;97695.84;4821838;28;104061;-76
2020/12/31 05:10:10;;;;;;;;;12.75;10.75;;;;;12.05;55.56;97683.84;4800510;28;103039;-76
2020/12/31 05:12:37;;;;;;;;;17.25;14.75;;;;;12.04;56.42;97682.19;4728813;28;104557;-76
2020/12/31 05:15:04;;;;;;;;;16.75;15.00;;;;;12.10;56.32;97689.38;4826986;28;104062;-76
2020/12/31 05:17:31;;;;;;;;;13.50;12.25;;;;;12.06;56.09;97688.22;4821569;28;104008;-76
2020/12/31 05:19:57;;;;;;;;;10.50;10.50;;;;;12.04;56.04;97685.72;4845364;28;103819;-77
2020/12/31 05:22:24;;;;;;;;;12.00;8.25;;;;;12.03;56.38;97681.34;4849113;28;102762;-77
2020/12/31 05:24:52;;;;;;;;;17.75;13.00;;;;;12.04;55.88;97679.47;4808398;28;103150;-76
2020/12/31 05:27:28;;;;;;;;;13.50;11.50;;;;;12.07;56.63;97687.13;4821716;28;104525;-77
2020/12/31 05:29:58;;;;;;;;;14.50;12.25;;;;;12.07;56.49;97692.53;4833795;28;103105;-77
2020/12/31 05:32:27;;;;;;;;;12.50;10.00;;;;;12.03;56.65;97683.22;4804768;28;102877;-77
2020/12/31 05:34:54;;;;;;;;;15.25;12.75;;;;;12.05;56.48;97686.56;4814680;28;103016;-76
2020/12/31 05:37:22;;;;;;;;;14.50;13.50;;;;;12.05;55.79;97687.38;4820610;28;104336;-77
2020/12/31 05:39:59;;;;;;;;;15.75;13.00;;;;;12.05;55.85;97692.78;4816770;28;102840;-77
2020/12/31 05:42:27;;;;;;;;;13.25;11.00;;;;;12.05;56.38;97681.13;4810154;28;103046;-77
2020/12/31 05:45:18;;;;;;;;;16.00;13.00;;;;;12.03;56.17;97688.66;4839753;28;103234;-76
2020/12/31 05:47:49;;;;;;;;;13.25;11.25;;;;;12.05;56.15;97695.50;4749413;28;108458;-76
2020/12/31 05:50:17;;;;;;;;;15.25;12.25;;;;;12.02;56.31;97706.00;4828556;28;102940;-76
2020/12/31 05:52:44;;;;;;;;;15.00;11.75;;;;;11.99;56.22;97696.44;4793105;28;103075;-77
2020/12/31 05:55:11;;;;;;;;;15.50;12.00;;;;;11.99;55.74;97692.88;4832233;28;103646;-76
2020/12/31 05:57:44;;;;;;;;;15.50;13.25;;;;;12.02;56.05;97692.44;4824081;28;104616;-76
2020/12/31 06:00:22;;;;;;;;;16.00;12.00;;;;;12.02;55.88;97704.06;4802693;28;104020;-77
2020/12/31 06:02:53;;;;;;;;;16.75;13.25;;;;;11.98;56.29;97700.19;4819408;28;102964;-76
2020/12/31 06:05:21;;;;;;;;;12.75;11.00;;;;;12.00;56.01;97695.38;4820264;28;103248;-76
2020/12/31 06:07:52;;;;;;;;;13.50;10.75;;;;;12.01;55.80;97698.91;4805571;28;105079;-76
2020/12/31 06:10:27;;;;;;;;;11.00;8.00;;;;;12.00;56.43;97711.63;4831081;28;103000;-76
2020/12/31 06:13:00;;;;;;;;;10.50;10.00;;;;;11.98;56.32;97696.66;4827645;28;102904;-77
2020/12/31 06:15:32;;;;;;;;;14.00;10.75;;;;;12.01;56.25;97702.44;4806739;28;103159;-77
2020/12/31 06:18:01;;;;;;;;;10.25;10.00;;;;;11.97;55.93;97698.56;4808028;28;109287;-76
2020/12/31 06:20:29;;;;;;;;;12.50;11.25;;;;;11.93;55.66;97700.06;4826378;28;103311;-77
2020/12/31 06:22:58;;;;;;;;;10.50;9.00;;;;;11.99;55.73;97709.13;4804507;28;102884;-77
2020/12/31 06:25:44;;;;;;;;;13.00;9.00;;;;;11.99;55.60;97714.56;4786845;28;103825;-76
2020/12/31 06:28:15;;;;;;;;;13.00;10.25;;;;;12.00;56.02;97716.22;4767445;28;109760;-76
2020/12/31 06:30:46;;;;;;;;;8.00;7.00;;;;;11.99;55.96;97714.56;4787607;28;102973;-76
2020/12/31 06:33:33;;;;;;;;;11.75;9.00;;;;;11.95;55.88;97697.94;4809360;28;103091;-76
2020/12/31 06:36:02;;;;;;;;;13.50;9.00;;;;;11.97;56.20;97693.13;4824119;28;102906;-77
2020/12/31 06:38:40;;;;;;;;;8.00;7.25;;;;;11.98;56.49;97697.47;4812264;28;109373;-77
2020/12/31 06:41:31;;;;;;;;;13.50;11.00;;;;;11.98;55.99;97713.72;4781279;28;102936;-76
2020/12/31 06:44:37;;;;;;;;;15.75;11.50;;;;;11.96;56.32;97715.03;4789809;28;102899;-77
2020/12/31 06:47:03;;;;;;;;;12.75;11.00;;;;;11.96;55.74;97715.88;4702581;28;102981;-77
2020/12/31 06:49:52;;;;;;;;;9.50;8.00;;;;;11.95;56.07;97716.09;4780543;28;107626;-76
2020/12/31 06:52:20;;;;;;;;;9.75;8.75;;;;;11.94;55.64;97717.13;4764281;28;103397;-77
2020/12/31 06:54:48;;;;;;;;;12.75;8.50;;;;;11.88;55.89;97702.66;4778293;28;103125;-77
2020/12/31 06:57:37;;;;;;;;;13.00;10.25;;;;;11.96;55.96;97717.75;4798244;28;103035;-77
2020/12/31 07:00:05;;;;;;;;;8.00;7.00;;;;;11.91;55.79;97717.59;4827452;28;111590;-76
2020/12/31 07:02:45;;;;;;;;;13.50;12.50;;;;;11.92;56.51;97708.44;4812870;28;103510;-77
2020/12/31 07:05:21;;;;;;;;;13.50;10.25;;;;;11.93;56.32;97710.88;4652311;28;103008;-77
2020/12/31 07:07:48;;;;;;;;;7.75;7.25;;;;;11.87;56.45;97711.84;4779713;28;103215;-77
2020/12/31 07:10:15;;;;;;;;;10.50;8.25;;;;;11.91;56.07;97720.31;4791684;28;104575;-77
2020/12/31 07:12:45;;;;;;;;;9.50;8.00;;;;;11.93;55.77;97724.44;4807791;28;102907;-77
2020/12/31 07:15:13;;;;;;;;;13.75;10.75;;;;;11.90;56.04;97710.53;4818390;28;103175;-77
2020/12/31 07:17:47;;;;;;;;;9.25;8.00;;;;;11.93;56.00;97715.50;4815325;28;102865;-77
2020/12/31 07:20:15;;;;;;;;;10.25;8.25;;;;;11.88;55.65;97715.38;4811065;28;103767;-77
2020/12/31 07:22:43;;;;;;;;;8.75;8.25;;;;;11.88;55.54;97705.38;4794897;28;103088;-77
2020/12/31 07:25:11;;;;;;;;;12.50;8.25;;;;;11.87;56.40;97706.41;4771793;28;104673;-77
2020/12/31 07:27:42;;;;;;;;;10.50;7.50;;;;;11.86;55.78;97709.34;4796104;28;103038;-77
2020/12/31 07:30:08;;;;;;;;;12.00;7.25;;;;;11.92;55.85;97735.53;4812287;28;104167;-77
2020/12/31 07:33:12;;;;;;;;;12.00;8.25;;;;;11.90;56.31;97738.44;4816074;28;104504;-77
2020/12/31 07:35:51;;;;;;;;;8.50;8.00;;;;;11.88;55.79;97737.03;4746112;28;102973;-76
2020/12/31 07:38:18;;;;;;;;;9.50;8.00;;;;;11.86;56.37;97731.00;4681533;28;103903;-77
2020/12/31 07:40:50;;;;;;;;;11.50;9.00;;;;;11.84;56.10;97714.97;4817879;28;104227;-77
2020/12/31 07:43:24;;;;;;;;;12.25;8.25;;;;;11.83;56.22;97710.66;4832232;28;102898;-76
2020/12/31 07:46:01;;;;;;;;;10.75;9.00;;;;;11.91;56.32;97733.84;4782000;28;104149;-76
2020/12/31 07:48:28;;;;;;;;;10.25;8.50;;;;;11.87;56.03;97728.09;4736943;28;103772;-77
2020/12/31 07:50:57;;;;;;;;;11.75;8.25;;;;;11.86;55.92;97717.47;4781039;28;104195;-77
2020/12/31 07:53:24;;;;;;;;;9.25;9.25;;;;;11.86;56.05;97729.13;4782143;28;102845;-77
2020/12/31 07:55:52;;;;;;;;;10.50;7.00;;;;;11.83;55.72;97715.22;4731136;28;103631;-76
2020/12/31 07:58:25;;;;;;;;;13.75;11.75;;;;;11.88;56.12;97723.50;4808502;28;103529;-77
2020/12/31 08:01:07;;;;;;;;;10.25;8.75;;;;;11.89;55.83;97725.13;4814292;28;103345;-77
2020/12/31 08:03:39;;;;;;;;;9.50;7.75;;;;;11.89;55.90;97730.53;4769305;28;102936;-76
2020/12/31 08:06:08;;;;;;;;;8.50;7.75;;;;;11.86;55.58;97715.59;4749639;28;102840;-76
2020/12/31 08:08:35;;;;;;;;;8.75;8.00;;;;;11.89;55.59;97733.25;4810793;28;104269;-77
2020/12/31 08:11:11;;;;;;;;;10.75;9.50;;;;;11.89;56.12;97739.50;4810701;28;104861;-77
2020/12/31 08:13:38;;;;;;;;;6.25;5.75;;;;;11.93;56.17;97737.19;4831258;28;102956;-76
2020/12/31 08:16:05;;;;;;;;;8.00;7.75;;;;;11.83;55.58;97728.78;4813678;28;102771;-77
2020/12/31 08:18:34;;;;;;;;;4.75;3.75;;;;;11.85;55.57;97738.31;4800802;28;104131;-77
2020/12/31 08:21:04;;;;;;;;;8.00;8.00;;;;;11.83;56.00;97728.78;4783046;28;109614;-77
2020/12/31 08:23:34;;;;;;;;;9.75;8.25;;;;;11.85;56.46;97730.19;4771100;28;103429;-77
2020/12/31 08:26:02;;;;;;;;;8.00;8.00;;;;;11.82;55.97;97733.38;4758337;28;102930;-77
2020/12/31 08:28:34;;;;;;;;;7.75;6.75;;;;;11.89;55.77;97735.97;4783359;28;102995;-77
2020/12/31 08:31:08;;;;;;;;;7.50;7.00;;;;;11.83;56.10;97737.72;4794833;28;108201;-77
2020/12/31 08:33:35;;;;;;;;;8.00;8.00;;;;;11.83;56.11;97731.47;4801036;28;104074;-77
2020/12/31 08:36:02;;;;;;;;;10.25;8.25;;;;;11.84;55.62;97736.66;4738256;28;104074;-77
2020/12/31 08:38:29;;;;;;;;;8.25;7.50;;;;;11.83;55.55;97742.31;4835765;28;104334;-78
2020/12/31 08:40:57;;;;;;;;;8.75;7.25;;;;;11.82;55.81;97746.91;4816198;28;103646;-77
2020/12/31 08:43:29;;;;;;;;;13.50;8.75;;;;;11.86;56.13;97750.81;4736954;28;104041;-77
2020/12/31 08:45:59;;;;;;;;;7.25;6.00;;;;;11.80;55.68;97732.75;4811567;28;102955;-77
2020/12/31 08:48:27;;;;;;;;;9.00;7.75;;;;;11.82;56.23;97752.31;4778297;28;103110;-77
2020/12/31 08:51:10;;;;;;;;;8.75;7.25;;;;;11.88;55.83;97769.53;4816268;28;104202;-76
2020/12/31 08:53:59;;;;;;;;;8.00;7.00;;;;;11.87;55.34;97765.19;4768975;28;103004;-76
2020/12/31 08:56:32;;;;;;;;;8.75;7.75;;;;;11.85;55.83;97767.28;4791817;28;103950;-79
2020/12/31 08:59:08;;;;;;;;;9.00;7.50;;;;;11.84;56.07;97757.53;4817587;28;103243;-77
2020/12/31 09:01:35;;;;;;;;;7.50;7.25;;;;;11.82;55.77;97765.88;4827318;28;109049;-77
2020/12/31 09:04:18;;;;;;;;;8.25;7.50;;;;;11.86;55.91;97772.47;4807092;28;102952;-76
2020/12/31 09:06:46;;;;;;;;;7.25;6.75;;;;;11.84;56.06;97771.06;4760826;28;103434;-77
2020/12/31 09:09:23;;;;;;;;;6.75;6.00;;;;;11.86;55.95;97768.94;4740250;28;105571;-77
2020/12/31 09:11:55;;;;;;;;;8.00;7.25;;;;;11.82;55.96;97762.31;4785921;28;106020;-77
2020/12/31 09:14:22;;;;;;;;;10.75;7.25;;;;;11.82;56.20;97774.00;4725713;28;103072;-77
2020/12/31 09:16:48;;;;;;;;;8.25;8.00;;;;;11.80;55.72;97767.97;4826934;28;105234;-77
2020/12/31 09:19:16;;;;;;;;;7.50;7.00;;;;;11.84;55.26;97781.91;4837032;28;108072;-77
2020/12/31 09:21:43;;;;;;;;;9.50;7.25;;;;;11.81;55.97;97774.22;4786196;28;104530;-77
2020/12/31 09:27:30;;;;;;;;;10.00;7.50;;;;;11.85;55.94;97775.41;4723967;28;103011;-77
2020/12/31 09:30:01;;;;;;;;;8.25;7.50;;;;;11.81;55.61;97766.09;4600684;28;104084;-76
2020/12/31 09:32:36;;;;;;;;;8.75;7.00;;;;;11.79;55.94;97762.78;4656094;28;108615;-77
2020/12/31 09:35:22;;;;;;;;;8.00;7.00;;;;;11.80;55.96;97767.13;4755195;28;103949;-77
2020/12/31 09:37:57;;;;;;;;;8.75;7.00;;;;;11.84;55.48;97771.06;4715089;28;103290;-76
2020/12/31 09:40:24;;;;;;;;;8.50;6.50;;;;;11.87;55.39;97778.72;4816562;28;103358;-76
2020/12/31 09:42:51;;;;;;;;;9.00;7.25;;;;;11.81;55.91;97774.22;4759132;28;103917;-76
2020/12/31 09:45:18;;;;;;;;;7.25;7.25;;;;;11.84;55.39;97776.47;4792058;28;104258;-77
2020/12/31 09:47:45;;;;;;;;;9.25;7.25;;;;;11.81;55.61;97776.91;4717539;28;102867;-77
2020/12/31 09:50:12;;;;;;;;;6.75;6.50;;;;;11.87;55.20;97776.00;4829612;28;103708;-75
2020/12/31 09:52:39;;;;;;;;;10.25;8.25;;;;;11.83;55.37;97769.41;4821086;28;104488;-76
2020/12/31 09:55:26;;;;;;;;;7.50;6.50;;;;;11.81;55.43;97768.78;4840419;28;103897;-76
2020/12/31 09:57:53;;;;;;;;;8.50;7.25;;;;;11.81;55.49;97764.22;4853129;28;102982;-76
2020/12/31 10:00:24;;;;;;;;;9.75;8.00;;;;;11.82;55.57;97768.56;4831636;28;102942;-75
2020/12/31 10:02:51;;;;;;;;;8.50;6.75;;;;;11.85;55.65;97762.69;4793581;28;104476;-77
2020/12/31 10:05:20;;;;;;;;;7.75;6.00;;;;;11.83;55.55;97756.69;4844602;28;103071;-76
2020/12/31 10:07:47;;;;;;;;;9.25;8.00;;;;;11.79;55.21;97752.78;4819948;28;103060;-76
2020/12/31 10:10:14;;;;;;;;;6.00;5.75;;;;;11.85;55.35;97756.44;4850658;28;102998;-76
2020/12/31 10:12:41;;;;;;;;;6.50;6.25;;;;;11.83;55.42;97759.41;4796794;28;110279;-76
2020/12/31 10:15:07;;;;;;;;;6.50;6.00;;;;;11.84;55.47;97765.66;4801991;28;103409;-78
2020/12/31 10:17:34;;;;;;;;;7.00;6.00;;;;;11.83;55.86;97758.56;4789462;28;103042;-76
2020/12/31 10:20:03;;;;;;;;;7.00;6.00;;;;;11.77;55.13;97748.66;4824547;28;103248;-76
2020/12/31 10:22:30;;;;;;;;;6.00;6.00;;;;;11.78;55.75;97744.88;4789086;28;106157;-76
2020/12/31 10:24:57;;;;;;;;;9.25;7.00;;;;;11.83;55.02;97745.84;4798018;28;102895;-76
2020/12/31 10:27:24;;;;;;;;;6.50;6.50;;;;;11.82;55.31;97735.25;4744650;28;103033;-76
2020/12/31 10:29:52;;;;;;;;;8.00;6.00;;;;;11.83;55.87;97740.44;4777137;28;103105;-76
2020/12/31 10:32:19;;;;;;;;;7.75;6.00;;;;;11.74;55.33;97716.63;4754225;28;104000;-76
2020/12/31 10:34:47;;;;;;;;;8.25;6.75;;;;;11.82;55.62;97738.78;4809033;28;103138;-76
2020/12/31 10:37:27;;;;;;;;;10.25;7.50;;;;;11.82;55.51;97727.94;4796092;28;103764;-76
2020/12/31 10:39:54;;;;;;;;;8.25;7.00;;;;;11.82;55.29;97729.81;4801801;28;103846;-76
2020/12/31 10:42:21;;;;;;;;;9.75;5.75;;;;;11.80;55.01;97721.91;4804494;28;104876;-76
2020/12/31 10:44:54;;;;;;;;;7.50;7.00;;;;;11.81;55.25;97706.50;4771984;28;103105;-76
2020/12/31 10:47:22;;;;;;;;;7.75;6.75;;;;;11.84;55.54;97722.31;4830564;28;102987;-76
2020/12/31 10:49:49;;;;;;;;;12.75;7.50;;;;;11.83;55.59;97715.22;4808552;28;102961;-76
2020/12/31 10:52:16;;;;;;;;;7.00;6.00;;;;;11.77;55.86;97697.19;4802366;28;103624;-76
2020/12/31 10:54:43;;;;;;;;;6.75;5.75;;;;;11.80;55.79;97685.88;4812979;28;102954;-76
2020/12/31 10:57:17;;;;;;;;;5.75;5.75;;;;;11.82;55.20;97687.31;4842772;28;102738;-76
2020/12/31 10:59:47;;;;;;;;;8.50;7.75;;;;;11.82;56.25;97689.19;4826863;28;102996;-77
2020/12/31 11:02:21;;;;;;;;;8.50;8.50;;;;;11.88;55.69;97691.00;4829132;28;104717;-77
2020/12/31 11:04:48;;;;;;;;;8.50;5.75;;;;;11.93;56.03;97691.13;4844514;28;103373;-76
2020/12/31 11:07:15;;;;;;;;;8.75;7.50;;;;;11.94;55.86;97679.22;4845314;28;102960;-76
2020/12/31 11:09:41;;;;;;;;;8.25;7.00;;;;;12.00;56.24;97689.13;4820587;28;103011;-76
2020/12/31 11:12:08;;;;;;;;;8.75;7.00;;;;;11.96;57.31;97688.78;4812555;28;104136;-76
2020/12/31 11:14:35;;;;;;;;;12.50;9.25;;;;;11.95;57.00;97697.13;4825390;28;102748;-77
2020/12/31 11:17:02;;;;;;;;;13.75;8.75;;;;;11.97;57.83;97681.47;4837439;28;103064;-78
2020/12/31 11:19:29;;;;;;;;;10.25;7.00;;;;;12.06;58.50;97689.03;4823545;28;102927;-78
2020/12/31 11:21:56;;;;;;;;;7.75;5.75;;;;;12.08;60.43;97675.22;4844561;28;104308;-78
2020/12/31 11:24:23;;;;;;;;;9.25;7.25;;;;;12.20;60.55;97678.81;4832596;28;104001;-71
2020/12/31 11:26:50;;;;;;;;;12.75;8.00;;;;;12.25;61.63;97669.94;4823626;28;103861;-71